createdAt,value
2018-06-30T00:01:14.259Z,100837.10
2018-06-30T00:06:18.068Z,100834.75
2018-06-30T00:11:21.677Z,100837.78
2018-06-30T00:16:25.325Z,100835.75
2018-06-30T00:21:30.456Z,100834.46
2018-06-30T00:26:33.949Z,100828.83
2018-06-30T00:31:37.748Z,100830.28
2018-06-30T00:36:41.291Z,100826.11
2018-06-30T00:41:44.946Z,100826.00
2018-06-30T00:46:48.688Z,100823.69
2018-06-30T00:51:52.288Z,100824.68
2018-06-30T00:56:56.561Z,100831.14
2018-06-30T01:02:00.144Z,100831.53
2018-06-30T01:07:04.207Z,100835.88
2018-06-30T01:12:07.885Z,100839.45
2018-06-30T01:17:11.403Z,100844.23
2018-06-30T01:22:15.186Z,100847.00
2018-06-30T01:27:19.307Z,100839.78
2018-06-30T01:32:23.852Z,100842.80
2018-06-30T01:37:27.356Z,100839.53
2018-06-30T01:42:30.949Z,100837.46
2018-06-30T01:47:35.447Z,100841.88
2018-06-30T01:52:39.674Z,100837.53
2018-06-30T01:57:43.397Z,100829.55
2018-06-30T02:02:46.973Z,100833.58
2018-06-30T02:07:50.540Z,100825.10
2018-06-30T02:12:54.132Z,100828.39
2018-06-30T02:17:58.692Z,100827.77
2018-06-30T02:23:02.265Z,100833.11
2018-06-30T02:28:05.841Z,100829.52
2018-06-30T02:33:09.433Z,100833.48
2018-06-30T02:38:12.952Z,100837.86
2018-06-30T02:43:16.729Z,100849.09
2018-06-30T02:48:20.258Z,100845.91
2018-06-30T02:53:24.082Z,100851.05
2018-06-30T02:58:27.635Z,100853.77
2018-06-30T03:03:31.902Z,100852.73
2018-06-30T03:08:35.552Z,100860.18
2018-06-30T03:13:39.975Z,100855.15
2018-06-30T03:18:44.009Z,100858.80
2018-06-30T03:23:47.567Z,100860.42
2018-06-30T03:28:51.109Z,100864.18
2018-06-30T03:33:54.707Z,100856.10
2018-06-30T03:38:58.287Z,100857.66
2018-06-30T03:44:02.120Z,100854.45
2018-06-30T03:49:05.726Z,100847.73
2018-06-30T03:54:09.293Z,100845.08
2018-06-30T03:59:12.862Z,100849.17
2018-06-30T04:04:16.405Z,100851.50
2018-06-30T04:09:20.826Z,100848.69
2018-06-30T04:14:24.865Z,100854.14
2018-06-30T04:19:28.551Z,100855.86
2018-06-30T04:24:32.115Z,100861.49
2018-06-30T04:29:35.619Z,100861.78
2018-06-30T04:34:39.165Z,100869.62
2018-06-30T04:39:42.649Z,100868.53
2018-06-30T04:44:46.198Z,100869.85
2018-06-30T04:49:49.958Z,100874.67
2018-06-30T04:54:53.831Z,100868.69
2018-06-30T04:59:57.426Z,100878.33
2018-06-30T05:05:01.155Z,100876.13
2018-06-30T05:10:04.723Z,100879.53
2018-06-30T05:15:08.520Z,100882.05
2018-06-30T05:20:12.101Z,100879.20
2018-06-30T05:25:15.693Z,100883.80
2018-06-30T05:30:28.022Z,100891.02
2018-06-30T05:35:31.591Z,100885.86
2018-06-30T05:40:35.116Z,100896.82
2018-06-30T05:45:38.922Z,100901.16
2018-06-30T05:50:42.408Z,100908.82
2018-06-30T05:55:46.166Z,100906.59
2018-06-30T06:00:49.760Z,100910.45
2018-06-30T06:05:53.313Z,100912.30
2018-06-30T06:10:56.821Z,100909.87
2018-06-30T06:16:00.370Z,100903.30
2018-06-30T06:21:04.796Z,100910.19
2018-06-30T06:26:08.383Z,100909.58
2018-06-30T06:31:11.889Z,100906.17
2018-06-30T06:36:15.490Z,100907.33
2018-06-30T06:41:19.200Z,100915.44
2018-06-30T06:46:22.757Z,100913.75
2018-06-30T06:51:26.774Z,100916.06
2018-06-30T06:56:30.973Z,100913.34
2018-06-30T07:01:34.714Z,100909.80
2018-06-30T07:06:39.190Z,100910.18
2018-06-30T07:11:42.694Z,100921.48
2018-06-30T07:16:46.317Z,100914.08
2018-06-30T07:21:50.004Z,100919.02
2018-06-30T07:26:53.516Z,100919.27
2018-06-30T07:31:57.253Z,100923.96
2018-06-30T07:37:01.397Z,100918.84
2018-06-30T07:42:05.033Z,100919.78
2018-06-30T07:47:09.174Z,100924.81
2018-06-30T07:52:12.658Z,100926.91
2018-06-30T07:57:16.457Z,100917.68
2018-06-30T08:02:20.121Z,100922.89
2018-06-30T08:07:24.356Z,100918.63
2018-06-30T08:12:27.788Z,100923.36
2018-06-30T08:17:31.617Z,100917.81
2018-06-30T08:22:35.762Z,100921.01
2018-06-30T08:27:39.323Z,100927.12
2018-06-30T08:32:42.815Z,100925.70
2018-06-30T08:37:46.337Z,100943.90
2018-06-30T08:42:49.831Z,100942.35
2018-06-30T08:47:53.406Z,100936.30
2018-06-30T08:52:56.881Z,100944.72
2018-06-30T08:58:00.912Z,100943.00
2018-06-30T09:03:05.000Z,100944.82
2018-06-30T09:08:08.550Z,100939.69
2018-06-30T09:13:12.140Z,100943.86
2018-06-30T09:18:16.302Z,100951.20
2018-06-30T09:23:20.142Z,100938.84
2018-06-30T09:28:23.834Z,100936.45
2018-06-30T09:33:28.029Z,100944.27
2018-06-30T09:38:32.913Z,100930.84
2018-06-30T09:43:37.281Z,100937.77
2018-06-30T09:48:41.555Z,100935.98
2018-06-30T09:53:45.357Z,100944.12
2018-06-30T09:58:49.156Z,100933.83
2018-06-30T10:03:52.693Z,100927.83
2018-06-30T10:08:56.258Z,100932.06
2018-06-30T10:13:59.849Z,100927.48
2018-06-30T10:19:03.547Z,100928.85
2018-06-30T10:24:07.104Z,100930.56
2018-06-30T10:29:10.609Z,100919.03
2018-06-30T10:34:14.151Z,100926.17
2018-06-30T10:39:17.864Z,100922.52
2018-06-30T10:44:21.563Z,100914.94
2018-06-30T10:49:25.401Z,100904.92
2018-06-30T10:54:29.024Z,100898.35
2018-06-30T10:59:32.765Z,100899.52
2018-06-30T11:04:37.771Z,100891.09
2018-06-30T11:09:41.252Z,100888.69
2018-06-30T11:14:45.061Z,100877.05
2018-06-30T11:19:48.572Z,100872.84
2018-06-30T11:24:52.307Z,100876.05
2018-06-30T11:29:55.898Z,100872.24
2018-06-30T11:35:00.545Z,100867.50
2018-06-30T11:40:04.965Z,100865.94
2018-06-30T11:45:08.801Z,100873.97
2018-06-30T11:50:12.982Z,100877.34
2018-06-30T11:55:16.502Z,100860.80
2018-06-30T12:00:34.190Z,100857.48
2018-06-30T12:05:38.571Z,100848.61
2018-06-30T12:10:42.317Z,100851.81
2018-06-30T12:15:46.204Z,100845.66
2018-06-30T12:20:49.715Z,100847.11
2018-06-30T12:25:53.604Z,100840.56
2018-06-30T12:30:57.116Z,100850.55
2018-06-30T12:36:01.559Z,100851.17
2018-06-30T12:41:05.302Z,100842.97
2018-06-30T12:46:09.069Z,100838.49
2018-06-30T12:51:12.650Z,100832.52
2018-06-30T12:56:16.218Z,100827.81
2018-06-30T13:01:19.875Z,100840.00
2018-06-30T13:06:23.452Z,100826.47
2018-06-30T13:11:27.664Z,100835.65
2018-06-30T13:16:31.571Z,100830.59
2018-06-30T13:21:35.054Z,100814.69
2018-06-30T13:26:38.876Z,100821.27
2018-06-30T13:31:42.424Z,100820.72
2018-06-30T13:36:46.155Z,100809.84
2018-06-30T13:41:49.765Z,100819.14
2018-06-30T13:46:53.521Z,100804.58
2018-06-30T13:51:57.090Z,100810.84
2018-06-30T13:57:00.648Z,100808.02
2018-06-30T14:02:05.995Z,100802.78
2018-06-30T14:07:09.711Z,100794.11
2018-06-30T14:12:13.205Z,100804.38
2018-06-30T14:17:16.957Z,100792.39
2018-06-30T14:22:20.490Z,100796.41
2018-06-30T14:27:24.918Z,100795.07
2018-06-30T14:32:28.557Z,100780.20
2018-06-30T14:37:32.209Z,100792.98
2018-06-30T14:42:35.725Z,100790.49
2018-06-30T14:47:39.443Z,100784.06
2018-06-30T14:52:43.394Z,100787.30
2018-06-30T14:57:47.196Z,100783.96
2018-06-30T15:02:50.900Z,100784.94
2018-06-30T15:07:54.576Z,100789.44
2018-06-30T15:12:58.075Z,100779.17
2018-06-30T15:18:01.886Z,100776.31
2018-06-30T15:23:05.641Z,100781.03
2018-06-30T15:28:10.123Z,100781.03
2018-06-30T15:33:13.653Z,100776.92
2018-06-30T15:38:17.237Z,100776.67
2018-06-30T15:43:20.782Z,100779.17
2018-06-30T15:48:24.552Z,100780.81
2018-06-30T15:53:28.028Z,100778.96
2018-06-30T15:58:31.557Z,100778.81
2018-06-30T16:03:35.085Z,100780.13
2018-06-30T16:08:39.077Z,100784.90
2018-06-30T16:13:42.629Z,100787.37
2018-06-30T16:18:46.261Z,100769.16
2018-06-30T16:23:49.911Z,100769.23
2018-06-30T16:28:55.065Z,100773.81
2018-06-30T16:33:58.796Z,100770.41
2018-06-30T16:39:03.972Z,100771.33
2018-06-30T16:44:08.728Z,100765.94
2018-06-30T16:49:12.632Z,100769.83
2018-06-30T16:54:16.900Z,100767.88
2018-06-30T16:59:22.465Z,100763.10
2018-06-30T17:04:26.014Z,100771.10
2018-06-30T17:09:30.331Z,100771.86
2018-06-30T17:14:35.248Z,100768.95
2018-06-30T17:19:39.333Z,100776.48
2018-06-30T17:24:43.268Z,100769.88
2018-06-30T17:29:47.464Z,100772.53
2018-06-30T17:34:51.786Z,100770.05
2018-06-30T17:39:55.859Z,100775.02
2018-06-30T17:44:59.377Z,100764.48
2018-06-30T17:50:02.984Z,100767.66
2018-06-30T17:55:07.699Z,100770.99
2018-06-30T18:00:13.442Z,100766.95
2018-06-30T18:05:16.994Z,100770.22
2018-06-30T18:10:20.482Z,100778.09
2018-06-30T18:15:24.058Z,100789.64
2018-06-30T18:20:27.771Z,100781.88
2018-06-30T18:25:31.350Z,100789.11
2018-06-30T18:30:39.152Z,100789.58
2018-06-30T18:35:42.723Z,100788.89
2018-06-30T18:40:46.716Z,100798.69
2018-06-30T18:45:50.417Z,100799.54
2018-06-30T18:50:53.924Z,100800.08
2018-06-30T18:55:58.499Z,100795.17
2018-06-30T19:01:02.051Z,100804.53
2018-06-30T19:06:06.177Z,100802.97
2018-06-30T19:11:09.616Z,100808.29
2018-06-30T19:16:13.273Z,100816.79
2018-06-30T19:21:16.822Z,100825.46
2018-06-30T19:26:20.401Z,100822.20
2018-06-30T19:31:24.623Z,100832.42
2018-06-30T19:36:28.218Z,100835.56
2018-06-30T19:41:31.990Z,100842.40
2018-06-30T19:46:35.710Z,100849.22
2018-06-30T19:51:39.287Z,100855.18
2018-06-30T19:56:42.853Z,100858.19
2018-06-30T20:01:46.335Z,100866.95
2018-06-30T20:06:50.007Z,100870.87
2018-06-30T20:11:53.506Z,100883.33
2018-06-30T20:16:57.089Z,100886.20
2018-06-30T20:22:02.605Z,100889.66
2018-06-30T20:27:07.121Z,100884.47
2018-06-30T20:32:10.634Z,100890.45
2018-06-30T20:37:16.377Z,100892.63
2018-06-30T20:42:20.435Z,100899.73
2018-06-30T20:47:25.026Z,100899.36
2018-06-30T20:52:29.121Z,100898.55
2018-06-30T20:57:34.541Z,100900.66
2018-06-30T21:02:39.062Z,100902.52
2018-06-30T21:07:44.410Z,100909.48
2018-06-30T21:12:48.339Z,100906.64
2018-06-30T21:17:51.937Z,100906.53
2018-06-30T21:22:55.571Z,100912.67
2018-06-30T21:28:00.791Z,100924.80
2018-06-30T21:33:04.902Z,100925.37
2018-06-30T21:38:08.489Z,100932.59
2018-06-30T21:43:12.003Z,100940.78
2018-06-30T21:48:15.875Z,100946.52
2018-06-30T21:53:19.384Z,100945.19
2018-06-30T21:58:22.957Z,100948.63
2018-06-30T22:03:27.724Z,100945.95
2018-06-30T22:08:31.317Z,100950.70
2018-06-30T22:13:34.877Z,100954.77
2018-06-30T22:18:39.462Z,100954.73
2018-06-30T22:23:44.228Z,100956.14
2018-06-30T22:28:47.835Z,100960.17
2018-06-30T22:33:51.669Z,100966.22
2018-06-30T22:38:56.538Z,100964.97
2018-06-30T22:44:00.069Z,100967.91
2018-06-30T22:49:04.969Z,100967.75
2018-06-30T22:54:08.692Z,100972.87
2018-06-30T22:59:12.272Z,100968.74
2018-06-30T23:04:15.841Z,100973.09
2018-06-30T23:09:21.577Z,100971.17
2018-06-30T23:14:25.842Z,100978.30
2018-06-30T23:19:29.399Z,100978.45
2018-06-30T23:24:33.416Z,100976.92
2018-06-30T23:29:37.257Z,100979.98
2018-06-30T23:34:40.844Z,100988.37
2018-06-30T23:39:44.365Z,100990.97
2018-06-30T23:44:47.869Z,100999.20
2018-06-30T23:49:52.408Z,101004.69
2018-06-30T23:54:56.083Z,100997.98
2018-06-30T23:59:59.793Z,101001.20
